createdAt,value
2023-04-15T00:00:39.563Z,8.51
2023-04-15T00:01:42.841Z,8.45
2023-04-15T00:02:49.108Z,8.50
2023-04-15T00:03:53.118Z,8.50
2023-04-15T00:04:56.382Z,8.51
2023-04-15T00:06:00.305Z,8.59
2023-04-15T00:07:04.236Z,8.43
2023-04-15T00:08:07.439Z,8.60
2023-04-15T00:09:10.833Z,8.69
2023-04-15T00:10:15.401Z,8.76
2023-04-15T00:11:19.326Z,8.68
2023-04-15T00:12:23.747Z,8.84
2023-04-15T00:13:26.926Z,8.84
2023-04-15T00:14:29.504Z,8.86
2023-04-15T00:15:33.492Z,8.79
2023-04-15T00:16:37.200Z,8.76
2023-04-15T00:17:40.502Z,8.81
2023-04-15T00:18:44.465Z,8.60
2023-04-15T00:19:47.239Z,8.60
2023-04-15T00:20:53.238Z,8.62
2023-04-15T00:21:58.139Z,8.66
2023-04-15T00:23:02.209Z,8.70
2023-04-15T00:24:06.488Z,8.76
2023-04-15T00:25:13.642Z,8.54
2023-04-15T00:26:17.794Z,8.44
2023-04-15T00:27:24.337Z,8.59
2023-04-15T00:28:29.718Z,8.57
2023-04-15T00:29:34.659Z,8.44
2023-04-15T00:30:37.999Z,8.49
2023-04-15T00:31:42.183Z,8.62
2023-04-15T00:32:45.399Z,8.55
2023-04-15T00:33:51.904Z,8.47
2023-04-15T00:34:55.098Z,8.61
2023-04-15T00:35:58.292Z,8.36
2023-04-15T00:37:00.541Z,8.42
2023-04-15T00:38:03.642Z,8.48
2023-04-15T00:39:06.840Z,8.54
2023-04-15T00:40:12.253Z,8.46
2023-04-15T00:41:16.753Z,8.25
2023-04-15T00:42:22.023Z,8.21
2023-04-15T00:43:26.716Z,8.26
2023-04-15T00:44:28.942Z,8.20
2023-04-15T00:45:34.169Z,8.27
2023-04-15T00:46:38.983Z,8.35
2023-04-15T00:47:43.496Z,8.44
2023-04-15T00:48:46.847Z,8.34
2023-04-15T00:49:50.024Z,8.28
2023-04-15T00:50:55.208Z,8.40
2023-04-15T00:52:00.960Z,8.57
2023-04-15T00:53:04.365Z,8.60
2023-04-15T00:54:08.302Z,8.77
2023-04-15T00:55:13.671Z,8.97
2023-04-15T00:56:18.301Z,8.91
2023-04-15T00:57:21.843Z,8.58
2023-04-15T00:58:25.500Z,8.46
2023-04-15T00:59:29.513Z,8.17
2023-04-15T01:00:32.911Z,8.07
2023-04-15T01:01:36.145Z,8.16
2023-04-15T01:02:40.268Z,8.13
2023-04-15T01:03:44.599Z,8.08
2023-04-15T01:04:49.771Z,8.20
2023-04-15T01:05:55.020Z,8.09
2023-04-15T01:06:57.285Z,8.20
2023-04-15T01:08:00.501Z,8.15
2023-04-15T01:09:03.587Z,8.03
2023-04-15T01:10:08.665Z,7.92
2023-04-15T01:11:13.485Z,7.97
2023-04-15T01:12:18.673Z,7.92
2023-04-15T01:13:21.748Z,7.81
2023-04-15T01:14:26.272Z,8.04
2023-04-15T01:15:29.278Z,7.78
2023-04-15T01:16:32.593Z,7.84
2023-04-15T01:17:37.584Z,7.86
2023-04-15T01:18:42.114Z,7.98
2023-04-15T01:19:45.503Z,8.02
2023-04-15T01:20:48.802Z,8.14
2023-04-15T01:21:51.463Z,8.17
2023-04-15T01:22:55.410Z,7.98
2023-04-15T01:24:00.272Z,8.20
2023-04-15T01:25:08.971Z,8.25
2023-04-15T01:26:12.724Z,8.11
2023-04-15T01:27:15.470Z,8.18
2023-04-15T01:28:19.393Z,8.04
2023-04-15T01:29:27.389Z,8.12
2023-04-15T01:30:32.353Z,7.98
2023-04-15T01:31:36.187Z,8.01
2023-04-15T01:32:40.981Z,8.17
2023-04-15T01:33:44.920Z,8.06
2023-04-15T01:34:50.092Z,8.16
2023-04-15T01:35:58.548Z,8.28
2023-04-15T01:37:01.635Z,8.30
2023-04-15T01:38:06.395Z,8.25
2023-04-15T01:39:11.268Z,7.98
2023-04-15T01:40:14.290Z,8.00
2023-04-15T01:41:19.731Z,7.93
2023-04-15T01:42:23.340Z,7.95
2023-04-15T01:43:30.476Z,7.97
2023-04-15T01:44:35.576Z,8.11
2023-04-15T01:45:39.694Z,8.03
2023-04-15T01:46:43.436Z,7.95
2023-04-15T01:47:47.264Z,8.03
2023-04-15T01:48:50.640Z,7.80
2023-04-15T01:49:53.302Z,7.74
2023-04-15T01:50:58.907Z,7.97
2023-04-15T01:52:03.339Z,7.95
2023-04-15T01:53:09.550Z,8.06
2023-04-15T01:54:13.077Z,7.97
2023-04-15T01:55:16.675Z,8.20
2023-04-15T01:56:21.544Z,7.96
2023-04-15T01:57:26.206Z,7.98
2023-04-15T01:58:30.123Z,8.05
2023-04-15T01:59:33.108Z,8.02
2023-04-15T02:00:36.870Z,8.09
2023-04-15T02:01:40.325Z,8.02
2023-04-15T02:02:43.178Z,8.16
2023-04-15T02:03:50.695Z,8.19
2023-04-15T02:04:54.077Z,8.31
2023-04-15T02:06:01.141Z,8.13
2023-04-15T02:07:05.410Z,8.01
2023-04-15T02:08:08.584Z,8.05
2023-04-15T02:09:14.684Z,8.30
2023-04-15T02:10:18.026Z,8.36
2023-04-15T02:11:21.573Z,8.28
2023-04-15T02:12:25.814Z,8.21
2023-04-15T02:13:30.263Z,8.20
2023-04-15T02:14:33.516Z,8.22
2023-04-15T02:15:37.038Z,8.32
2023-04-15T02:16:41.358Z,8.33
2023-04-15T02:17:47.938Z,8.26
2023-04-15T02:18:53.624Z,8.29
2023-04-15T02:19:56.540Z,8.44
2023-04-15T02:21:01.285Z,8.38
2023-04-15T02:22:04.786Z,8.37
2023-04-15T02:23:10.887Z,8.40
2023-04-15T02:24:13.962Z,8.39
2023-04-15T02:25:18.107Z,8.41
2023-04-15T02:26:23.245Z,8.26
2023-04-15T02:27:26.578Z,8.39
2023-04-15T02:28:29.796Z,8.25
2023-04-15T02:29:33.703Z,8.30
2023-04-15T02:30:39.432Z,8.29
2023-04-15T02:31:42.924Z,8.30
2023-04-15T02:32:49.578Z,8.45
2023-04-15T02:33:53.480Z,8.39
2023-04-15T02:34:56.542Z,8.41
2023-04-15T02:36:00.183Z,8.13
2023-04-15T02:37:04.609Z,8.10
2023-04-15T02:38:08.845Z,8.02
2023-04-15T02:39:12.874Z,7.99
2023-04-15T02:40:16.294Z,7.96
2023-04-15T02:41:20.301Z,8.06
2023-04-15T02:42:23.726Z,8.00
2023-04-15T02:43:26.897Z,7.99
2023-04-15T02:44:31.157Z,7.89
2023-04-15T02:45:34.976Z,8.03
2023-04-15T02:46:39.487Z,8.18
2023-04-15T02:47:43.916Z,8.08
2023-04-15T02:48:47.436Z,7.99
2023-04-15T02:49:50.655Z,8.00
2023-04-15T02:50:54.248Z,7.86
2023-04-15T02:51:59.832Z,7.86
2023-04-15T02:53:03.622Z,7.96
2023-04-15T02:54:07.780Z,8.15
2023-04-15T02:55:11.509Z,8.17
2023-04-15T02:56:16.222Z,7.99
2023-04-15T02:57:18.924Z,8.20
2023-04-15T02:58:22.434Z,8.26
2023-04-15T02:59:27.089Z,8.28
2023-04-15T03:00:30.164Z,8.21
2023-04-15T03:01:33.200Z,8.25
2023-04-15T03:02:39.035Z,8.18
2023-04-15T03:03:42.634Z,8.19
2023-04-15T03:04:48.794Z,8.14
2023-04-15T03:05:51.031Z,8.26
2023-04-15T03:06:55.063Z,8.28
2023-04-15T03:07:58.969Z,8.12
2023-04-15T03:09:02.899Z,8.22
2023-04-15T03:10:08.614Z,8.16
2023-04-15T03:11:14.450Z,8.17
2023-04-15T03:12:17.525Z,8.16
2023-04-15T03:13:22.157Z,8.19
2023-04-15T03:14:27.754Z,8.02
2023-04-15T03:15:31.479Z,7.84
2023-04-15T03:16:34.876Z,7.78
2023-04-15T03:17:39.144Z,7.77
2023-04-15T03:18:42.920Z,7.84
2023-04-15T03:19:46.946Z,7.93
2023-04-15T03:20:50.469Z,7.85
2023-04-15T03:21:55.165Z,7.87
2023-04-15T03:22:58.413Z,7.89
2023-04-15T03:24:02.215Z,7.73
2023-04-15T03:25:06.657Z,7.85
2023-04-15T03:26:12.912Z,7.93
2023-04-15T03:27:15.438Z,8.06
2023-04-15T03:28:19.480Z,7.97
2023-04-15T03:29:25.616Z,8.11
2023-04-15T03:30:28.996Z,8.15
2023-04-15T03:31:32.527Z,8.29
2023-04-15T03:32:36.461Z,8.10
2023-04-15T03:33:41.611Z,8.21
2023-04-15T03:34:43.838Z,8.32
2023-04-15T03:35:49.974Z,8.48
2023-04-15T03:36:53.120Z,8.24
2023-04-15T03:37:56.295Z,8.15
2023-04-15T03:39:00.338Z,8.22
2023-04-15T03:40:06.177Z,8.22
2023-04-15T03:41:09.998Z,8.13
2023-04-15T03:42:14.146Z,8.29
2023-04-15T03:43:17.623Z,8.25
2023-04-15T03:44:21.140Z,8.00
2023-04-15T03:45:23.486Z,7.87
2023-04-15T03:46:27.554Z,7.78
2023-04-15T03:47:31.929Z,7.62
2023-04-15T03:48:38.499Z,7.78
2023-04-15T03:49:41.067Z,7.68
2023-04-15T03:50:45.291Z,7.75
2023-04-15T03:51:50.166Z,7.82
2023-04-15T03:52:54.400Z,7.78
2023-04-15T03:53:57.689Z,7.65
2023-04-15T03:55:02.143Z,7.71
2023-04-15T03:56:06.381Z,7.39
2023-04-15T03:57:09.780Z,7.52
2023-04-15T03:58:14.717Z,7.73
2023-04-15T03:59:18.042Z,7.98
2023-04-15T04:00:23.689Z,8.01
2023-04-15T04:01:27.350Z,8.11
2023-04-15T04:02:30.605Z,8.11
2023-04-15T04:03:37.530Z,7.94
2023-04-15T04:04:42.109Z,7.87
2023-04-15T04:05:45.642Z,7.88
2023-04-15T04:06:48.891Z,7.86
2023-04-15T04:07:52.244Z,7.67
2023-04-15T04:08:56.716Z,7.58
2023-04-15T04:09:59.037Z,7.44
2023-04-15T04:11:02.774Z,7.51
2023-04-15T04:12:07.899Z,7.80
2023-04-15T04:13:11.197Z,7.99
2023-04-15T04:14:14.524Z,7.79
2023-04-15T04:15:17.943Z,7.98
2023-04-15T04:16:21.497Z,7.93
2023-04-15T04:17:24.843Z,7.73
2023-04-15T04:18:30.068Z,7.81
2023-04-15T04:19:33.407Z,7.92
2023-04-15T04:20:40.873Z,8.07
2023-04-15T04:21:45.847Z,7.71
2023-04-15T04:22:49.450Z,7.24
2023-04-15T04:23:53.730Z,7.25
2023-04-15T04:24:57.794Z,7.31
2023-04-15T04:25:59.982Z,7.33
2023-04-15T04:27:03.508Z,7.25
2023-04-15T04:28:07.809Z,7.42
2023-04-15T04:29:11.556Z,7.40
2023-04-15T04:30:14.820Z,7.29
2023-04-15T04:31:18.017Z,7.46
2023-04-15T04:32:22.793Z,7.81
2023-04-15T04:33:26.286Z,7.75
2023-04-15T04:34:29.388Z,7.79
2023-04-15T04:35:33.711Z,7.74
2023-04-15T04:36:38.478Z,7.30
2023-04-15T04:37:42.707Z,7.57
2023-04-15T04:38:46.911Z,7.49
2023-04-15T04:39:50.014Z,7.50
2023-04-15T04:40:54.382Z,7.64
2023-04-15T04:41:57.677Z,7.78
2023-04-15T04:43:00.001Z,7.91
2023-04-15T04:44:03.096Z,7.80
2023-04-15T04:45:07.855Z,7.74
2023-04-15T04:46:12.715Z,7.66
2023-04-15T04:47:16.567Z,7.78
2023-04-15T04:48:20.590Z,7.68
2023-04-15T04:49:22.920Z,7.67
2023-04-15T04:50:26.959Z,7.55
2023-04-15T04:51:30.565Z,7.47
2023-04-15T04:52:32.817Z,7.28
2023-04-15T04:53:38.080Z,7.28
2023-04-15T04:54:41.709Z,7.33
2023-04-15T04:55:44.995Z,7.36
2023-04-15T04:56:48.214Z,7.26
2023-04-15T04:57:51.178Z,7.31
2023-04-15T04:58:58.353Z,7.41
2023-04-15T05:00:03.520Z,7.55
2023-04-15T05:01:07.384Z,7.36
2023-04-15T05:02:09.868Z,7.31
2023-04-15T05:03:13.661Z,7.34
2023-04-15T05:04:18.271Z,7.45
2023-04-15T05:05:22.082Z,7.59
2023-04-15T05:06:26.348Z,7.49
2023-04-15T05:07:29.209Z,7.41
2023-04-15T05:08:32.315Z,7.37
2023-04-15T05:09:37.973Z,7.54
2023-04-15T05:11:47.810Z,7.71
2023-04-15T05:12:53.796Z,7.66
2023-04-15T05:13:56.295Z,7.79
2023-04-15T05:14:59.426Z,7.70
2023-04-15T05:16:02.713Z,7.71
2023-04-15T05:17:06.384Z,7.85
2023-04-15T05:18:09.597Z,7.72
2023-04-15T05:19:14.376Z,7.92
2023-04-15T05:20:20.347Z,7.98
2023-04-15T05:21:23.945Z,8.06
2023-04-15T05:22:27.566Z,7.89
2023-04-15T05:23:31.397Z,8.03
2023-04-15T05:24:35.547Z,8.07
2023-04-15T05:25:39.960Z,7.89
2023-04-15T05:26:43.370Z,7.75
2023-04-15T05:27:50.228Z,7.73
2023-04-15T05:28:52.757Z,7.66
2023-04-15T05:29:56.152Z,7.68
2023-04-15T05:30:59.768Z,7.75
2023-04-15T05:32:04.543Z,7.64
2023-04-15T05:33:07.014Z,7.71
2023-04-15T05:34:09.991Z,7.69
2023-04-15T05:35:13.386Z,7.52
2023-04-15T05:36:16.694Z,7.44
2023-04-15T05:37:23.084Z,7.46
2023-04-15T05:38:26.721Z,7.67
2023-04-15T05:39:30.110Z,7.61
2023-04-15T05:40:33.987Z,7.64
2023-04-15T05:41:37.239Z,7.79
2023-04-15T05:42:39.493Z,7.83
2023-04-15T05:43:42.772Z,7.79
2023-04-15T05:44:45.642Z,7.91
2023-04-15T05:45:48.833Z,7.71
2023-04-15T05:46:52.462Z,7.58
2023-04-15T05:47:57.860Z,7.63
2023-04-15T05:49:01.497Z,7.77
2023-04-15T05:50:05.526Z,7.76
2023-04-15T05:51:09.043Z,7.84
2023-04-15T05:52:11.867Z,8.07
2023-04-15T05:53:15.395Z,8.12
2023-04-15T05:54:22.415Z,8.20
2023-04-15T05:55:27.497Z,8.17
2023-04-15T05:56:31.527Z,8.25
2023-04-15T05:57:34.788Z,8.56
2023-04-15T05:58:38.113Z,8.67
2023-04-15T05:59:42.687Z,8.68
2023-04-15T06:00:47.327Z,8.81
2023-04-15T06:01:52.714Z,9.11
2023-04-15T06:02:58.118Z,9.13
2023-04-15T06:04:02.198Z,8.84
2023-04-15T06:05:07.759Z,8.63
2023-04-15T06:06:11.218Z,8.73
2023-04-15T06:07:14.613Z,8.50
2023-04-15T06:08:18.272Z,8.70
2023-04-15T06:09:21.629Z,8.73
2023-04-15T06:10:25.787Z,8.65
2023-04-15T06:11:29.586Z,8.72
2023-04-15T06:12:32.978Z,8.73
2023-04-15T06:13:35.536Z,8.30
2023-04-15T06:14:39.629Z,8.57
2023-04-15T06:15:42.752Z,8.68
2023-04-15T06:16:45.944Z,8.61
2023-04-15T06:17:49.176Z,8.46
2023-04-15T06:18:51.601Z,8.48
2023-04-15T06:19:57.455Z,8.64
2023-04-15T06:21:01.021Z,8.43
2023-04-15T06:22:04.840Z,8.53
2023-04-15T06:23:08.240Z,8.65
2023-04-15T06:24:13.452Z,8.72
2023-04-15T06:25:18.798Z,8.57
2023-04-15T06:26:21.980Z,8.44
2023-04-15T06:27:26.196Z,8.50
2023-04-15T06:28:28.821Z,8.51
2023-04-15T06:29:31.985Z,8.74
2023-04-15T06:30:35.587Z,8.72
2023-04-15T06:31:38.823Z,8.44
2023-04-15T06:32:42.891Z,8.42
2023-04-15T06:33:47.465Z,8.56
2023-04-15T06:34:50.603Z,8.75
2023-04-15T06:35:54.044Z,8.96
2023-04-15T06:36:57.144Z,8.79
2023-04-15T06:38:00.362Z,9.08
2023-04-15T06:39:05.708Z,8.88
2023-04-15T06:40:11.528Z,8.77
2023-04-15T06:41:35.811Z,8.85
2023-04-15T06:42:39.214Z,9.02
2023-04-15T06:43:42.915Z,8.88
2023-04-15T06:44:46.004Z,8.92
2023-04-15T06:45:50.197Z,8.71
2023-04-15T06:46:53.649Z,8.58
2023-04-15T06:47:56.056Z,8.63
2023-04-15T06:48:59.041Z,8.66
2023-04-15T06:50:02.224Z,8.77
2023-04-15T06:51:04.638Z,8.98
2023-04-15T06:52:07.886Z,9.14
2023-04-15T06:53:11.335Z,9.27
2023-04-15T06:54:13.887Z,9.34
2023-04-15T06:55:18.373Z,8.93
2023-04-15T06:56:23.002Z,8.78
2023-04-15T06:57:26.435Z,8.86
2023-04-15T06:58:28.892Z,8.88
2023-04-15T06:59:32.396Z,9.00
2023-04-15T07:00:36.406Z,9.03
2023-04-15T07:01:41.569Z,8.94
2023-04-15T07:02:45.168Z,8.82
2023-04-15T07:03:47.664Z,8.74
2023-04-15T07:04:51.682Z,8.97
2023-04-15T07:05:56.132Z,8.74
2023-04-15T07:07:00.443Z,8.68
2023-04-15T07:08:04.363Z,8.87
2023-04-15T07:09:08.600Z,8.97
2023-04-15T07:10:13.766Z,8.91
2023-04-15T07:11:19.381Z,8.69
2023-04-15T07:12:21.739Z,8.47
2023-04-15T07:13:26.487Z,8.50
2023-04-15T07:14:30.134Z,8.66
2023-04-15T07:15:33.428Z,8.51
2023-04-15T07:16:36.321Z,8.56
2023-04-15T07:17:39.811Z,8.45
2023-04-15T07:18:45.389Z,8.44
2023-04-15T07:19:49.718Z,8.86
2023-04-15T07:20:54.257Z,9.07
2023-04-15T07:21:58.818Z,9.34
2023-04-15T07:23:03.371Z,9.34
2023-04-15T07:24:07.490Z,8.99
2023-04-15T07:25:11.106Z,8.44
2023-04-15T07:26:15.729Z,8.53
2023-04-15T07:27:18.928Z,8.58
2023-04-15T07:28:23.322Z,8.72
2023-04-15T07:29:26.578Z,8.73
2023-04-15T07:30:31.557Z,8.72
2023-04-15T07:31:34.991Z,8.65
2023-04-15T07:32:37.334Z,8.51
2023-04-15T07:33:42.175Z,8.54
2023-04-15T07:34:45.171Z,8.50
2023-04-15T07:35:51.431Z,8.76
2023-04-15T07:36:54.784Z,8.55
2023-04-15T07:37:58.391Z,8.60
2023-04-15T07:39:03.015Z,8.78
2023-04-15T07:40:07.815Z,8.67
2023-04-15T07:41:10.895Z,8.74
2023-04-15T07:42:14.291Z,8.80
2023-04-15T07:43:16.543Z,8.68
2023-04-15T07:44:21.161Z,8.84
2023-04-15T07:45:24.706Z,8.89
2023-04-15T07:46:28.117Z,8.86
2023-04-15T07:47:30.883Z,9.05
2023-04-15T07:48:36.279Z,9.04
2023-04-15T07:49:43.839Z,9.05
2023-04-15T07:50:48.190Z,9.08
2023-04-15T07:51:51.988Z,9.07
2023-04-15T07:52:55.314Z,9.08
2023-04-15T07:53:59.428Z,9.21
2023-04-15T07:55:02.932Z,9.10
2023-04-15T07:56:09.153Z,8.86
2023-04-15T07:57:12.367Z,8.76
2023-04-15T07:58:16.999Z,8.51
2023-04-15T07:59:21.929Z,8.32
2023-04-15T08:00:25.794Z,8.31
2023-04-15T08:01:33.249Z,8.30
2023-04-15T08:02:38.964Z,8.33
2023-04-15T08:03:45.249Z,8.34
2023-04-15T08:04:54.180Z,8.52
2023-04-15T08:05:57.341Z,8.34
2023-04-15T08:06:59.978Z,8.29
2023-04-15T08:08:05.382Z,8.54
2023-04-15T08:09:09.995Z,8.57
2023-04-15T08:10:13.222Z,8.54
2023-04-15T08:11:17.650Z,8.54
2023-04-15T08:12:20.111Z,8.38
2023-04-15T08:13:23.661Z,8.43
2023-04-15T08:14:29.001Z,8.29
2023-04-15T08:15:32.496Z,8.41
2023-04-15T08:16:36.499Z,8.48
2023-04-15T08:17:38.899Z,8.40
2023-04-15T08:18:41.766Z,8.51
2023-04-15T08:19:44.984Z,8.41
2023-04-15T08:20:49.922Z,8.57
2023-04-15T08:21:55.103Z,8.42
2023-04-15T08:22:57.978Z,8.41
2023-04-15T08:24:01.283Z,8.70
2023-04-15T08:25:05.141Z,8.71
2023-04-15T08:26:09.304Z,8.34
2023-04-15T08:27:11.702Z,8.35
2023-04-15T08:28:15.193Z,8.25
2023-04-15T08:29:18.405Z,8.42
2023-04-15T08:30:22.879Z,8.63
2023-04-15T08:31:27.319Z,8.78
2023-04-15T08:32:30.180Z,8.80
2023-04-15T08:33:32.714Z,8.95
2023-04-15T08:34:36.131Z,8.85
2023-04-15T08:35:39.926Z,8.85
2023-04-15T08:36:42.501Z,8.42
2023-04-15T08:37:46.002Z,8.56
2023-04-15T08:38:50.479Z,8.69
2023-04-15T08:39:55.621Z,8.64
2023-04-15T08:41:01.044Z,8.62
2023-04-15T08:42:07.647Z,8.68
2023-04-15T08:43:12.771Z,8.68
2023-04-15T08:44:15.702Z,8.96
2023-04-15T08:45:26.119Z,8.83
2023-04-15T08:46:30.063Z,8.75
2023-04-15T08:47:34.314Z,8.56
2023-04-15T08:48:38.180Z,8.30
2023-04-15T08:49:43.044Z,8.55
2023-04-15T08:50:47.176Z,8.61
2023-04-15T08:51:51.638Z,8.74
2023-04-15T08:52:56.474Z,8.94
2023-04-15T08:54:02.535Z,8.90
2023-04-15T08:55:10.388Z,8.98
2023-04-15T08:56:17.909Z,9.03
2023-04-15T08:57:21.584Z,8.95
2023-04-15T08:58:25.303Z,8.74
2023-04-15T08:59:29.561Z,8.62
2023-04-15T09:00:33.254Z,8.50
2023-04-15T09:01:41.731Z,8.44
2023-04-15T09:02:45.300Z,8.63
2023-04-15T09:03:50.759Z,8.45
2023-04-15T09:04:53.727Z,8.71
2023-04-15T09:05:59.226Z,8.43
2023-04-15T09:07:02.782Z,8.33
2023-04-15T09:08:05.754Z,8.41
2023-04-15T09:09:08.923Z,8.45
2023-04-15T09:10:13.321Z,8.34
2023-04-15T09:11:21.483Z,8.58
2023-04-15T09:12:27.563Z,8.42
2023-04-15T09:13:30.018Z,8.51
2023-04-15T09:14:34.788Z,8.27
2023-04-15T09:15:40.907Z,8.45
2023-04-15T09:16:59.324Z,8.52
2023-04-15T09:18:03.667Z,8.27
2023-04-15T09:19:25.878Z,8.12
2023-04-15T09:20:29.390Z,8.28
2023-04-15T09:21:32.916Z,8.44
2023-04-15T09:22:36.393Z,8.29
2023-04-15T09:23:40.432Z,8.23
2023-04-15T09:24:44.065Z,8.44
2023-04-15T09:25:46.388Z,8.54
2023-04-15T09:26:51.358Z,8.72
2023-04-15T09:27:58.262Z,8.61
2023-04-15T09:29:09.862Z,8.57
2023-04-15T09:30:13.073Z,8.61
2023-04-15T09:31:17.623Z,8.76
2023-04-15T09:32:23.957Z,8.96
2023-04-15T09:33:29.634Z,8.86
2023-04-15T09:34:36.781Z,8.70
2023-04-15T09:35:43.223Z,8.60
2023-04-15T09:36:51.747Z,8.72
2023-04-15T09:37:57.420Z,8.72
2023-04-15T09:39:01.078Z,8.90
2023-04-15T09:40:04.975Z,8.76
2023-04-15T09:41:09.041Z,8.69
2023-04-15T09:42:11.970Z,8.78
2023-04-15T09:43:17.303Z,8.72
2023-04-15T09:44:23.669Z,8.68
2023-04-15T09:45:29.358Z,8.48
2023-04-15T09:46:47.599Z,8.41
2023-04-15T09:47:54.321Z,8.60
2023-04-15T09:49:10.389Z,8.67
2023-04-15T09:50:16.565Z,8.63
2023-04-15T09:51:22.972Z,8.57
2023-04-15T09:52:27.722Z,8.70
2023-04-15T09:53:40.186Z,8.80
2023-04-15T09:54:45.463Z,8.91
2023-04-15T09:55:59.413Z,8.74
2023-04-15T09:57:07.451Z,8.48
2023-04-15T09:58:12.691Z,8.53
2023-04-15T09:59:15.987Z,8.29
2023-04-15T10:00:19.245Z,8.44
2023-04-15T10:01:24.821Z,8.44
2023-04-15T10:02:30.714Z,8.57
2023-04-15T10:03:36.699Z,8.34
2023-04-15T10:04:42.307Z,8.34
2023-04-15T10:05:46.628Z,8.52
2023-04-15T10:06:50.256Z,8.24
2023-04-15T10:07:54.054Z,8.36
2023-04-15T10:08:57.977Z,8.62
2023-04-15T10:10:04.230Z,8.40
2023-04-15T10:11:08.530Z,8.39
2023-04-15T10:12:11.731Z,8.44
2023-04-15T10:13:17.762Z,8.68
2023-04-15T10:14:21.669Z,8.51
2023-04-15T10:15:25.693Z,8.51
2023-04-15T10:16:29.825Z,8.38
2023-04-15T10:17:37.858Z,8.40
2023-04-15T10:18:44.196Z,8.35
2023-04-15T10:19:47.744Z,8.42
2023-04-15T10:20:51.353Z,8.52
2023-04-15T10:21:56.156Z,8.57
2023-04-15T10:23:02.053Z,8.55
2023-04-15T10:24:05.745Z,8.74
2023-04-15T10:25:21.849Z,8.75
2023-04-15T10:26:27.521Z,8.57
2023-04-15T10:27:30.669Z,8.84
2023-04-15T10:28:34.595Z,9.11
2023-04-15T10:29:41.819Z,8.97
2023-04-15T10:30:45.413Z,8.96
2023-04-15T10:31:49.892Z,9.16
2023-04-15T10:32:54.025Z,8.98
2023-04-15T10:33:58.804Z,8.78
2023-04-15T10:35:02.945Z,8.73
2023-04-15T10:36:07.166Z,8.88
2023-04-15T10:37:12.468Z,8.91
2023-04-15T10:38:38.191Z,8.92
2023-04-15T10:39:43.600Z,9.00
2023-04-15T10:40:47.930Z,8.98
2023-04-15T10:41:56.820Z,9.28
2023-04-15T10:43:02.778Z,9.10
2023-04-15T10:44:07.112Z,8.82
2023-04-15T10:45:12.329Z,8.75
2023-04-15T10:46:17.783Z,8.77
2023-04-15T10:47:21.736Z,8.76
2023-04-15T10:48:24.675Z,8.84
2023-04-15T10:49:36.863Z,8.70
2023-04-15T10:50:40.243Z,8.64
2023-04-15T10:51:47.738Z,8.83
2023-04-15T10:52:51.686Z,8.91
2023-04-15T10:53:56.001Z,8.92
2023-04-15T10:55:01.893Z,8.85
2023-04-15T10:56:05.513Z,8.97
2023-04-15T10:57:10.262Z,9.05
2023-04-15T10:58:16.112Z,8.84
2023-04-15T10:59:21.358Z,8.88
2023-04-15T11:00:28.516Z,8.77
2023-04-15T11:01:50.803Z,8.77
2023-04-15T11:03:00.975Z,8.52
2023-04-15T11:04:05.588Z,8.58
2023-04-15T11:05:10.816Z,8.74
2023-04-15T11:06:13.626Z,8.83
2023-04-15T11:07:17.033Z,9.01
2023-04-15T11:08:21.059Z,9.05
2023-04-15T11:09:33.843Z,9.17
2023-04-15T11:10:38.853Z,9.25
2023-04-15T11:12:00.495Z,9.13
2023-04-15T11:13:05.165Z,9.08
2023-04-15T11:14:10.411Z,9.21
2023-04-15T11:15:32.517Z,9.11
2023-04-15T11:16:38.073Z,9.07
2023-04-15T11:17:41.758Z,8.96
2023-04-15T11:18:57.333Z,9.01
2023-04-15T11:20:00.778Z,8.95
2023-04-15T11:21:06.411Z,9.16
2023-04-15T11:22:11.300Z,9.11
2023-04-15T11:23:16.139Z,9.17
2023-04-15T11:24:21.437Z,9.40
2023-04-15T11:25:26.509Z,9.13
2023-04-15T11:26:29.871Z,9.09
2023-04-15T11:27:32.789Z,9.03
2023-04-15T11:28:39.785Z,8.95
2023-04-15T11:29:42.836Z,9.05
2023-04-15T11:30:45.493Z,9.04
2023-04-15T11:31:50.965Z,9.08
2023-04-15T11:32:55.509Z,9.16
2023-04-15T11:34:00.920Z,8.94
2023-04-15T11:35:03.395Z,8.79
2023-04-15T11:36:06.375Z,8.75
2023-04-15T11:37:11.331Z,8.91
2023-04-15T11:38:16.066Z,8.92
2023-04-15T11:39:20.327Z,8.55
2023-04-15T11:40:29.377Z,8.59
2023-04-15T11:41:34.264Z,8.64
2023-04-15T11:42:49.087Z,8.71
2023-04-15T11:43:43.331Z,8.75
2023-04-15T11:44:46.382Z,8.73
2023-04-15T11:45:52.807Z,8.79
2023-04-15T11:46:56.248Z,8.54
2023-04-15T11:48:07.909Z,8.75
2023-04-15T11:49:11.832Z,8.56
2023-04-15T11:50:23.108Z,8.67
2023-04-15T11:51:26.265Z,8.81
2023-04-15T11:52:28.604Z,8.61
2023-04-15T11:53:46.533Z,8.71
2023-04-15T11:54:49.962Z,8.66
2023-04-15T11:56:58.404Z,9.29
2023-04-15T11:58:17.345Z,9.32
2023-04-15T11:59:21.290Z,9.17
2023-04-15T12:00:25.814Z,8.88
2023-04-15T12:01:31.959Z,9.10
2023-04-15T12:02:37.542Z,9.05
2023-04-15T12:03:45.530Z,8.97
2023-04-15T12:04:48.644Z,8.95
2023-04-15T12:06:11.135Z,8.91
2023-04-15T12:07:14.529Z,8.98
2023-04-15T12:08:17.949Z,9.16
2023-04-15T12:09:23.061Z,8.97
2023-04-15T12:10:28.101Z,8.66
2023-04-15T12:11:32.677Z,8.71
2023-04-15T12:12:36.251Z,8.74
2023-04-15T12:13:39.653Z,8.76
2023-04-15T12:14:42.859Z,8.74
2023-04-15T12:15:46.600Z,8.77
2023-04-15T12:16:52.686Z,8.78
2023-04-15T12:17:56.830Z,8.87
2023-04-15T12:19:02.103Z,8.86
2023-04-15T12:20:06.214Z,9.04
2023-04-15T12:21:10.664Z,8.93
2023-04-15T12:22:14.793Z,8.66
2023-04-15T12:23:21.194Z,8.82
2023-04-15T12:24:24.725Z,8.90
2023-04-15T12:25:35.429Z,8.87
2023-04-15T12:26:54.171Z,8.71
2023-04-15T12:27:59.468Z,8.45
2023-04-15T12:29:03.290Z,8.71
2023-04-15T12:30:07.561Z,8.60
2023-04-15T12:31:12.124Z,8.61
2023-04-15T12:32:16.840Z,8.57
2023-04-15T12:33:22.118Z,8.62
2023-04-15T12:34:33.251Z,8.81
2023-04-15T12:35:37.265Z,8.45
2023-04-15T12:36:40.676Z,8.60
2023-04-15T12:37:45.048Z,8.78
2023-04-15T12:38:48.522Z,8.77
2023-04-15T12:39:51.310Z,8.87
2023-04-15T12:40:54.719Z,8.83
2023-04-15T12:42:01.021Z,8.91
2023-04-15T12:43:04.309Z,8.65
2023-04-15T12:44:07.717Z,8.81
2023-04-15T12:45:11.118Z,8.71
2023-04-15T12:46:14.544Z,8.63
2023-04-15T12:47:18.307Z,8.45
2023-04-15T12:48:22.992Z,8.66
2023-04-15T12:49:27.134Z,8.63
2023-04-15T12:50:31.581Z,8.64
2023-04-15T12:51:35.178Z,8.64
2023-04-15T12:52:38.579Z,8.65
2023-04-15T12:53:41.878Z,8.72
2023-04-15T12:54:45.054Z,8.56
2023-04-15T12:55:50.062Z,8.56
2023-04-15T12:56:53.643Z,8.71
2023-04-15T12:57:58.694Z,8.66
2023-04-15T12:59:03.324Z,8.77
2023-04-15T13:00:08.859Z,8.76
2023-04-15T13:01:12.677Z,8.86
2023-04-15T13:02:16.485Z,8.93
2023-04-15T13:03:19.009Z,8.99
2023-04-15T13:04:24.219Z,8.88
2023-04-15T13:05:32.970Z,8.76
2023-04-15T13:06:35.737Z,8.84
2023-04-15T13:07:40.307Z,8.89
2023-04-15T13:08:57.418Z,8.96
2023-04-15T13:09:47.912Z,8.86
2023-04-15T13:10:51.442Z,8.95
2023-04-15T13:11:55.020Z,9.04
2023-04-15T13:12:59.054Z,8.86
2023-04-15T13:14:03.840Z,8.63
2023-04-15T13:15:10.858Z,8.48
2023-04-15T13:16:14.744Z,8.48
2023-04-15T13:17:19.794Z,8.71
2023-04-15T13:18:24.050Z,8.73
2023-04-15T13:19:27.730Z,8.88
2023-04-15T13:20:31.235Z,8.88
2023-04-15T13:21:37.044Z,8.85
2023-04-15T13:22:45.086Z,8.95
2023-04-15T13:23:49.591Z,8.89
2023-04-15T13:24:53.077Z,8.98
2023-04-15T13:25:56.570Z,8.91
2023-04-15T13:27:00.125Z,8.89
2023-04-15T13:28:03.488Z,8.88
2023-04-15T13:29:08.197Z,8.50
2023-04-15T13:30:13.044Z,8.46
2023-04-15T13:31:16.723Z,8.27
2023-04-15T13:32:19.000Z,8.33
2023-04-15T13:33:22.579Z,8.59
2023-04-15T13:34:25.985Z,8.44
2023-04-15T13:35:29.817Z,8.44
2023-04-15T13:36:36.117Z,8.63
2023-04-15T13:37:39.511Z,8.77
2023-04-15T13:38:45.983Z,8.67
2023-04-15T13:39:50.399Z,8.68
2023-04-15T13:40:54.561Z,8.55
2023-04-15T13:42:01.316Z,8.51
2023-04-15T13:43:06.639Z,8.49
2023-04-15T13:44:09.956Z,8.63
2023-04-15T13:45:12.194Z,8.53
2023-04-15T13:46:15.892Z,8.51
2023-04-15T13:47:22.786Z,8.49
2023-04-15T13:48:25.874Z,8.69
2023-04-15T13:49:28.527Z,8.52
2023-04-15T13:50:33.590Z,8.38
2023-04-15T13:51:40.084Z,8.35
2023-04-15T13:52:43.315Z,8.41
2023-04-15T13:53:47.609Z,8.45
2023-04-15T13:55:07.090Z,8.30
2023-04-15T13:55:57.260Z,8.40
2023-04-15T13:57:00.856Z,8.32
2023-04-15T13:58:03.666Z,8.32
2023-04-15T13:59:10.734Z,8.28
2023-04-15T14:00:15.270Z,8.55
2023-04-15T14:01:19.468Z,8.58
2023-04-15T14:02:24.420Z,8.42
2023-04-15T14:03:27.234Z,8.46
2023-04-15T14:04:31.526Z,8.41
2023-04-15T14:05:34.912Z,8.59
2023-04-15T14:06:38.700Z,8.63
2023-04-15T14:07:41.883Z,8.42
2023-04-15T14:08:45.191Z,8.55
2023-04-15T14:09:48.737Z,8.63
2023-04-15T14:10:52.935Z,8.68
2023-04-15T14:11:57.380Z,8.51
2023-04-15T14:13:00.686Z,8.28
2023-04-15T14:14:05.801Z,8.50
2023-04-15T14:15:09.682Z,8.62
2023-04-15T14:16:13.106Z,8.41
2023-04-15T14:17:18.851Z,8.61
2023-04-15T14:18:22.373Z,8.40
2023-04-15T14:19:25.773Z,8.41
2023-04-15T14:20:29.074Z,8.45
2023-04-15T14:21:34.188Z,8.34
2023-04-15T14:22:36.916Z,8.56